sensor_id;sensor_type;location;lat;lon;timestamp;P1;durP1;ratioP1;P2;durP2;ratioP2
71298;SDS011;59083;47.974;21.722;2022-10-16T00:02:39;29.00;;;15.77;;
71298;SDS011;59083;47.974;21.722;2022-10-16T00:05:41;31.67;;;16.50;;
71298;SDS011;59083;47.974;21.722;2022-10-16T00:08:43;31.07;;;16.47;;
71298;SDS011;59083;47.974;21.722;2022-10-16T00:11:45;30.12;;;15.48;;
71298;SDS011;59083;47.974;21.722;2022-10-16T00:14:46;27.80;;;15.43;;
71298;SDS011;59083;47.974;21.722;2022-10-16T00:17:48;28.10;;;16.37;;
71298;SDS011;59083;47.974;21.722;2022-10-16T00:20:49;32.63;;;17.30;;
71298;SDS011;59083;47.974;21.722;2022-10-16T00:23:51;30.17;;;16.57;;
71298;SDS011;59083;47.974;21.722;2022-10-16T00:26:54;29.75;;;15.50;;
71298;SDS011;59083;47.974;21.722;2022-10-16T00:29:55;29.10;;;15.90;;
71298;SDS011;59083;47.974;21.722;2022-10-16T00:32:56;29.37;;;15.77;;
71298;SDS011;59083;47.974;21.722;2022-10-16T00:35:58;33.27;;;16.57;;
71298;SDS011;59083;47.974;21.722;2022-10-16T00:39:01;30.03;;;15.80;;
71298;SDS011;59083;47.974;21.722;2022-10-16T00:42:02;30.17;;;15.85;;
71298;SDS011;59083;47.974;21.722;2022-10-16T00:45:04;30.30;;;16.10;;
71298;SDS011;59083;47.974;21.722;2022-10-16T00:48:06;28.45;;;15.77;;
71298;SDS011;59083;47.974;21.722;2022-10-16T00:51:12;31.53;;;15.17;;
71298;SDS011;59083;47.974;21.722;2022-10-16T00:54:19;28.57;;;15.83;;
71298;SDS011;59083;47.974;21.722;2022-10-16T00:57:23;31.08;;;15.73;;
71298;SDS011;59083;47.974;21.722;2022-10-16T01:00:26;30.55;;;16.48;;
71298;SDS011;59083;47.974;21.722;2022-10-16T01:03:29;30.50;;;15.93;;
71298;SDS011;59083;47.974;21.722;2022-10-16T01:13:06;30.37;;;16.75;;
71298;SDS011;59083;47.974;21.722;2022-10-16T01:16:13;35.92;;;16.60;;
71298;SDS011;59083;47.974;21.722;2022-10-16T01:32:56;32.10;;;16.15;;
71298;SDS011;59083;47.974;21.722;2022-10-16T01:36:16;27.83;;;15.50;;
71298;SDS011;59083;47.974;21.722;2022-10-16T01:39:23;28.43;;;16.20;;
71298;SDS011;59083;47.974;21.722;2022-10-16T01:42:31;35.40;;;16.20;;
71298;SDS011;59083;47.974;21.722;2022-10-16T01:45:37;32.88;;;16.23;;
71298;SDS011;59083;47.974;21.722;2022-10-16T01:48:38;29.85;;;16.00;;
71298;SDS011;59083;47.974;21.722;2022-10-16T01:51:41;36.08;;;16.62;;
71298;SDS011;59083;47.974;21.722;2022-10-16T01:54:46;33.80;;;16.40;;
71298;SDS011;59083;47.974;21.722;2022-10-16T01:57:50;29.93;;;16.23;;
71298;SDS011;59083;47.974;21.722;2022-10-16T02:00:54;31.30;;;15.73;;
71298;SDS011;59083;47.974;21.722;2022-10-16T02:03:58;30.83;;;16.37;;
71298;SDS011;59083;47.974;21.722;2022-10-16T02:07:04;34.13;;;17.90;;
71298;SDS011;59083;47.974;21.722;2022-10-16T02:10:06;35.13;;;16.87;;
71298;SDS011;59083;47.974;21.722;2022-10-16T02:16:23;32.72;;;16.50;;
71298;SDS011;59083;47.974;21.722;2022-10-16T02:19:33;32.88;;;16.23;;
71298;SDS011;59083;47.974;21.722;2022-10-16T02:22:36;30.10;;;16.45;;
71298;SDS011;59083;47.974;21.722;2022-10-16T02:25:41;28.23;;;15.73;;
71298;SDS011;59083;47.974;21.722;2022-10-16T02:28:48;31.53;;;16.27;;
71298;SDS011;59083;47.974;21.722;2022-10-16T02:31:57;31.67;;;16.58;;
71298;SDS011;59083;47.974;21.722;2022-10-16T02:35:03;29.58;;;15.75;;
71298;SDS011;59083;47.974;21.722;2022-10-16T02:38:05;27.87;;;15.90;;
71298;SDS011;59083;47.974;21.722;2022-10-16T02:41:08;32.67;;;15.23;;
71298;SDS011;59083;47.974;21.722;2022-10-16T02:44:11;29.20;;;16.07;;
71298;SDS011;59083;47.974;21.722;2022-10-16T02:47:12;28.27;;;15.73;;
71298;SDS011;59083;47.974;21.722;2022-10-16T02:50:13;29.60;;;16.02;;
71298;SDS011;59083;47.974;21.722;2022-10-16T02:53:15;30.02;;;16.20;;
71298;SDS011;59083;47.974;21.722;2022-10-16T02:56:16;30.57;;;16.13;;
71298;SDS011;59083;47.974;21.722;2022-10-16T02:59:17;30.87;;;16.17;;
71298;SDS011;59083;47.974;21.722;2022-10-16T03:02:19;32.40;;;17.37;;
71298;SDS011;59083;47.974;21.722;2022-10-16T03:05:21;32.55;;;16.40;;
71298;SDS011;59083;47.974;21.722;2022-10-16T03:08:22;30.88;;;16.45;;
71298;SDS011;59083;47.974;21.722;2022-10-16T03:11:26;29.53;;;15.37;;
71298;SDS011;59083;47.974;21.722;2022-10-16T03:14:27;29.47;;;15.87;;
71298;SDS011;59083;47.974;21.722;2022-10-16T03:17:28;30.45;;;15.45;;
71298;SDS011;59083;47.974;21.722;2022-10-16T03:20:29;29.67;;;15.60;;
71298;SDS011;59083;47.974;21.722;2022-10-16T03:23:30;37.42;;;17.27;;
71298;SDS011;59083;47.974;21.722;2022-10-16T03:26:32;28.33;;;15.47;;
71298;SDS011;59083;47.974;21.722;2022-10-16T03:29:33;29.30;;;14.87;;
71298;SDS011;59083;47.974;21.722;2022-10-16T03:32:34;31.10;;;15.55;;
71298;SDS011;59083;47.974;21.722;2022-10-16T03:35:36;34.70;;;16.15;;
71298;SDS011;59083;47.974;21.722;2022-10-16T03:38:37;27.87;;;15.02;;
71298;SDS011;59083;47.974;21.722;2022-10-16T03:41:38;25.83;;;14.73;;
71298;SDS011;59083;47.974;21.722;2022-10-16T03:44:40;28.03;;;15.33;;
71298;SDS011;59083;47.974;21.722;2022-10-16T03:47:41;35.17;;;14.73;;
71298;SDS011;59083;47.974;21.722;2022-10-16T03:50:42;28.02;;;15.82;;
71298;SDS011;59083;47.974;21.722;2022-10-16T03:53:43;31.37;;;15.38;;
71298;SDS011;59083;47.974;21.722;2022-10-16T03:56:45;32.83;;;16.50;;
71298;SDS011;59083;47.974;21.722;2022-10-16T03:59:46;28.00;;;14.00;;
71298;SDS011;59083;47.974;21.722;2022-10-16T04:02:47;26.45;;;14.45;;
71298;SDS011;59083;47.974;21.722;2022-10-16T04:05:49;29.25;;;14.68;;
71298;SDS011;59083;47.974;21.722;2022-10-16T04:08:50;32.78;;;15.68;;
71298;SDS011;59083;47.974;21.722;2022-10-16T04:11:51;29.63;;;16.43;;
71298;SDS011;59083;47.974;21.722;2022-10-16T04:14:52;31.70;;;15.93;;
71298;SDS011;59083;47.974;21.722;2022-10-16T04:17:54;31.12;;;17.30;;
71298;SDS011;59083;47.974;21.722;2022-10-16T04:20:55;33.50;;;17.52;;
71298;SDS011;59083;47.974;21.722;2022-10-16T04:23:56;34.67;;;16.92;;
71298;SDS011;59083;47.974;21.722;2022-10-16T04:26:57;34.97;;;16.40;;
71298;SDS011;59083;47.974;21.722;2022-10-16T04:29:59;34.43;;;17.70;;
71298;SDS011;59083;47.974;21.722;2022-10-16T04:33:00;34.95;;;17.17;;
71298;SDS011;59083;47.974;21.722;2022-10-16T04:36:02;38.22;;;17.58;;
71298;SDS011;59083;47.974;21.722;2022-10-16T04:39:04;38.22;;;18.27;;
71298;SDS011;59083;47.974;21.722;2022-10-16T04:42:05;35.17;;;17.47;;
71298;SDS011;59083;47.974;21.722;2022-10-16T04:45:07;34.43;;;17.47;;
71298;SDS011;59083;47.974;21.722;2022-10-16T04:48:09;32.70;;;17.37;;
71298;SDS011;59083;47.974;21.722;2022-10-16T04:51:10;34.35;;;16.70;;
71298;SDS011;59083;47.974;21.722;2022-10-16T04:54:11;37.17;;;17.15;;
71298;SDS011;59083;47.974;21.722;2022-10-16T04:57:13;31.90;;;15.83;;
71298;SDS011;59083;47.974;21.722;2022-10-16T05:00:14;33.40;;;16.13;;
71298;SDS011;59083;47.974;21.722;2022-10-16T05:03:15;36.38;;;16.25;;
71298;SDS011;59083;47.974;21.722;2022-10-16T05:06:16;30.62;;;15.45;;
71298;SDS011;59083;47.974;21.722;2022-10-16T05:09:17;34.05;;;16.40;;
71298;SDS011;59083;47.974;21.722;2022-10-16T05:12:19;32.67;;;16.07;;
71298;SDS011;59083;47.974;21.722;2022-10-16T05:15:20;32.57;;;16.23;;
71298;SDS011;59083;47.974;21.722;2022-10-16T05:18:21;32.25;;;17.42;;
71298;SDS011;59083;47.974;21.722;2022-10-16T05:21:22;32.67;;;16.05;;
71298;SDS011;59083;47.974;21.722;2022-10-16T05:24:24;35.45;;;17.60;;
71298;SDS011;59083;47.974;21.722;2022-10-16T05:27:25;35.93;;;17.10;;
71298;SDS011;59083;47.974;21.722;2022-10-16T05:30:26;27.57;;;15.73;;
71298;SDS011;59083;47.974;21.722;2022-10-16T05:33:27;32.15;;;16.83;;
71298;SDS011;59083;47.974;21.722;2022-10-16T05:36:29;34.53;;;15.48;;
71298;SDS011;59083;47.974;21.722;2022-10-16T05:39:30;33.35;;;15.80;;
71298;SDS011;59083;47.974;21.722;2022-10-16T05:42:31;30.10;;;15.27;;
71298;SDS011;59083;47.974;21.722;2022-10-16T05:45:32;26.33;;;14.67;;
71298;SDS011;59083;47.974;21.722;2022-10-16T05:48:34;29.80;;;15.25;;
71298;SDS011;59083;47.974;21.722;2022-10-16T05:51:35;31.12;;;14.93;;
71298;SDS011;59083;47.974;21.722;2022-10-16T05:54:36;31.50;;;15.70;;
71298;SDS011;59083;47.974;21.722;2022-10-16T05:57:38;24.73;;;13.93;;
71298;SDS011;59083;47.974;21.722;2022-10-16T06:00:39;26.73;;;14.47;;
71298;SDS011;59083;47.974;21.722;2022-10-16T06:03:41;26.67;;;14.80;;
71298;SDS011;59083;47.974;21.722;2022-10-16T06:06:42;28.77;;;16.00;;
71298;SDS011;59083;47.974;21.722;2022-10-16T06:09:44;28.02;;;15.48;;
71298;SDS011;59083;47.974;21.722;2022-10-16T06:12:45;31.20;;;16.57;;
71298;SDS011;59083;47.974;21.722;2022-10-16T06:15:46;29.40;;;16.17;;
71298;SDS011;59083;47.974;21.722;2022-10-16T06:18:50;29.12;;;16.52;;
71298;SDS011;59083;47.974;21.722;2022-10-16T06:21:51;29.52;;;16.02;;
71298;SDS011;59083;47.974;21.722;2022-10-16T06:24:52;32.60;;;17.20;;
71298;SDS011;59083;47.974;21.722;2022-10-16T06:27:54;27.57;;;15.73;;
71298;SDS011;59083;47.974;21.722;2022-10-16T06:30:58;25.70;;;15.63;;
71298;SDS011;59083;47.974;21.722;2022-10-16T06:34:01;29.17;;;15.63;;
71298;SDS011;59083;47.974;21.722;2022-10-16T06:37:02;41.97;;;22.17;;
71298;SDS011;59083;47.974;21.722;2022-10-16T06:40:04;30.02;;;16.40;;
71298;SDS011;59083;47.974;21.722;2022-10-16T06:43:05;30.63;;;16.23;;
71298;SDS011;59083;47.974;21.722;2022-10-16T06:46:07;32.47;;;16.50;;
71298;SDS011;59083;47.974;21.722;2022-10-16T06:49:11;33.20;;;17.20;;
71298;SDS011;59083;47.974;21.722;2022-10-16T06:52:12;32.25;;;17.00;;
71298;SDS011;59083;47.974;21.722;2022-10-16T06:55:13;31.35;;;17.17;;
71298;SDS011;59083;47.974;21.722;2022-10-16T06:58:15;31.73;;;17.37;;
71298;SDS011;59083;47.974;21.722;2022-10-16T07:01:17;30.30;;;17.17;;
71298;SDS011;59083;47.974;21.722;2022-10-16T07:04:20;30.60;;;16.77;;
71298;SDS011;59083;47.974;21.722;2022-10-16T07:07:21;30.10;;;16.37;;
71298;SDS011;59083;47.974;21.722;2022-10-16T07:10:25;27.17;;;16.48;;
71298;SDS011;59083;47.974;21.722;2022-10-16T07:13:26;29.07;;;16.50;;
71298;SDS011;59083;47.974;21.722;2022-10-16T07:16:29;30.50;;;16.50;;
71298;SDS011;59083;47.974;21.722;2022-10-16T07:19:32;30.23;;;16.83;;
71298;SDS011;59083;47.974;21.722;2022-10-16T07:22:33;30.00;;;15.85;;
71298;SDS011;59083;47.974;21.722;2022-10-16T07:25:34;26.25;;;15.23;;
71298;SDS011;59083;47.974;21.722;2022-10-16T07:28:36;29.50;;;15.90;;
71298;SDS011;59083;47.974;21.722;2022-10-16T07:31:38;41.57;;;23.73;;
71298;SDS011;59083;47.974;21.722;2022-10-16T07:34:40;29.40;;;16.30;;
71298;SDS011;59083;47.974;21.722;2022-10-16T07:37:44;27.70;;;15.10;;
71298;SDS011;59083;47.974;21.722;2022-10-16T07:40:46;27.60;;;14.65;;
71298;SDS011;59083;47.974;21.722;2022-10-16T07:43:49;26.53;;;14.73;;
71298;SDS011;59083;47.974;21.722;2022-10-16T07:46:52;25.83;;;15.03;;
71298;SDS011;59083;47.974;21.722;2022-10-16T07:49:53;28.67;;;14.57;;
71298;SDS011;59083;47.974;21.722;2022-10-16T07:52:54;24.12;;;14.43;;
71298;SDS011;59083;47.974;21.722;2022-10-16T07:56:03;25.90;;;14.38;;
71298;SDS011;59083;47.974;21.722;2022-10-16T07:59:06;26.10;;;14.33;;
71298;SDS011;59083;47.974;21.722;2022-10-16T08:02:07;28.20;;;14.90;;
71298;SDS011;59083;47.974;21.722;2022-10-16T08:05:09;25.88;;;14.50;;
71298;SDS011;59083;47.974;21.722;2022-10-16T08:08:15;26.55;;;14.55;;
71298;SDS011;59083;47.974;21.722;2022-10-16T08:11:17;24.63;;;13.77;;
71298;SDS011;59083;47.974;21.722;2022-10-16T08:14:19;26.43;;;13.90;;
71298;SDS011;59083;47.974;21.722;2022-10-16T08:17:20;26.57;;;13.47;;
71298;SDS011;59083;47.974;21.722;2022-10-16T08:20:21;23.90;;;13.20;;
71298;SDS011;59083;47.974;21.722;2022-10-16T08:23:22;26.75;;;13.75;;
71298;SDS011;59083;47.974;21.722;2022-10-16T08:26:26;23.35;;;13.02;;
71298;SDS011;59083;47.974;21.722;2022-10-16T08:29:28;23.13;;;13.20;;
71298;SDS011;59083;47.974;21.722;2022-10-16T08:32:29;23.97;;;12.27;;
71298;SDS011;59083;47.974;21.722;2022-10-16T08:35:30;28.70;;;14.55;;
71298;SDS011;59083;47.974;21.722;2022-10-16T08:38:32;20.67;;;12.10;;
71298;SDS011;59083;47.974;21.722;2022-10-16T08:41:47;22.45;;;12.00;;
71298;SDS011;59083;47.974;21.722;2022-10-16T08:48:32;19.90;;;11.40;;
71298;SDS011;59083;47.974;21.722;2022-10-16T08:51:42;22.27;;;11.38;;
71298;SDS011;59083;47.974;21.722;2022-10-16T08:54:45;18.70;;;10.82;;
71298;SDS011;59083;47.974;21.722;2022-10-16T08:57:52;19.17;;;11.20;;
71298;SDS011;59083;47.974;21.722;2022-10-16T09:00:54;20.27;;;10.63;;
71298;SDS011;59083;47.974;21.722;2022-10-16T09:13:31;17.02;;;9.90;;
71298;SDS011;59083;47.974;21.722;2022-10-16T09:17:18;17.47;;;9.33;;
71298;SDS011;59083;47.974;21.722;2022-10-16T09:23:32;15.52;;;9.27;;
71298;SDS011;59083;47.974;21.722;2022-10-16T09:26:36;17.25;;;9.32;;
71298;SDS011;59083;47.974;21.722;2022-10-16T09:29:37;18.08;;;9.18;;
71298;SDS011;59083;47.974;21.722;2022-10-16T09:32:38;18.23;;;9.53;;
71298;SDS011;59083;47.974;21.722;2022-10-16T09:35:44;19.50;;;9.37;;
71298;SDS011;59083;47.974;21.722;2022-10-16T09:38:49;14.52;;;8.73;;
71298;SDS011;59083;47.974;21.722;2022-10-16T09:41:51;15.50;;;8.88;;
71298;SDS011;59083;47.974;21.722;2022-10-16T09:44:53;18.27;;;9.38;;
71298;SDS011;59083;47.974;21.722;2022-10-16T09:47:54;17.73;;;9.70;;
71298;SDS011;59083;47.974;21.722;2022-10-16T09:51:00;15.23;;;8.53;;
71298;SDS011;59083;47.974;21.722;2022-10-16T09:57:07;16.50;;;8.50;;
71298;SDS011;59083;47.974;21.722;2022-10-16T10:00:16;14.65;;;8.45;;
71298;SDS011;59083;47.974;21.722;2022-10-16T10:03:37;18.30;;;9.00;;
71298;SDS011;59083;47.974;21.722;2022-10-16T10:06:45;17.60;;;8.93;;
71298;SDS011;59083;47.974;21.722;2022-10-16T10:09:49;16.30;;;8.43;;
71298;SDS011;59083;47.974;21.722;2022-10-16T10:12:50;16.40;;;8.18;;
71298;SDS011;59083;47.974;21.722;2022-10-16T10:15:51;14.60;;;8.07;;
71298;SDS011;59083;47.974;21.722;2022-10-16T10:18:58;14.30;;;7.43;;
71298;SDS011;59083;47.974;21.722;2022-10-16T10:22:00;18.63;;;7.37;;
71298;SDS011;59083;47.974;21.722;2022-10-16T10:25:12;14.68;;;7.90;;
71298;SDS011;59083;47.974;21.722;2022-10-16T10:28:43;14.75;;;7.70;;
71298;SDS011;59083;47.974;21.722;2022-10-16T10:35:25;14.77;;;7.90;;
71298;SDS011;59083;47.974;21.722;2022-10-16T10:39:00;11.33;;;7.17;;
71298;SDS011;59083;47.974;21.722;2022-10-16T10:45:33;16.00;;;8.25;;
71298;SDS011;59083;47.974;21.722;2022-10-16T11:02:25;15.40;;;7.43;;
71298;SDS011;59083;47.974;21.722;2022-10-16T11:08:53;13.40;;;7.03;;
71298;SDS011;59083;47.974;21.722;2022-10-16T11:15:23;11.85;;;6.80;;
71298;SDS011;59083;47.974;21.722;2022-10-16T11:18:44;11.93;;;6.70;;
71298;SDS011;59083;47.974;21.722;2022-10-16T11:22:00;18.50;;;6.93;;
71298;SDS011;59083;47.974;21.722;2022-10-16T11:28:33;15.33;;;5.97;;
71298;SDS011;59083;47.974;21.722;2022-10-16T11:31:43;11.48;;;6.32;;
71298;SDS011;59083;47.974;21.722;2022-10-16T11:34:53;12.93;;;6.15;;
71298;SDS011;59083;47.974;21.722;2022-10-16T11:38:00;11.90;;;6.32;;
71298;SDS011;59083;47.974;21.722;2022-10-16T11:41:15;11.37;;;6.37;;
71298;SDS011;59083;47.974;21.722;2022-10-16T11:48:04;15.43;;;6.82;;
71298;SDS011;59083;47.974;21.722;2022-10-16T11:54:33;14.60;;;6.32;;
71298;SDS011;59083;47.974;21.722;2022-10-16T11:57:41;12.50;;;6.27;;
71298;SDS011;59083;47.974;21.722;2022-10-16T12:07:24;10.90;;;6.15;;
71298;SDS011;59083;47.974;21.722;2022-10-16T12:10:33;11.18;;;6.10;;
71298;SDS011;59083;47.974;21.722;2022-10-16T12:13:42;14.00;;;5.90;;
71298;SDS011;59083;47.974;21.722;2022-10-16T12:16:57;12.73;;;6.30;;
71298;SDS011;59083;47.974;21.722;2022-10-16T12:23:19;10.93;;;6.32;;
71298;SDS011;59083;47.974;21.722;2022-10-16T12:26:24;10.38;;;5.57;;
71298;SDS011;59083;47.974;21.722;2022-10-16T12:29:34;15.80;;;6.37;;
71298;SDS011;59083;47.974;21.722;2022-10-16T12:32:40;16.23;;;5.93;;
71298;SDS011;59083;47.974;21.722;2022-10-16T12:35:44;12.73;;;5.72;;
71298;SDS011;59083;47.974;21.722;2022-10-16T12:38:48;12.18;;;5.68;;
71298;SDS011;59083;47.974;21.722;2022-10-16T12:42:02;13.20;;;5.65;;
71298;SDS011;59083;47.974;21.722;2022-10-16T12:45:25;12.93;;;5.73;;
71298;SDS011;59083;47.974;21.722;2022-10-16T12:48:27;11.13;;;5.63;;
71298;SDS011;59083;47.974;21.722;2022-10-16T12:54:37;9.40;;;5.32;;
71298;SDS011;59083;47.974;21.722;2022-10-16T12:57:52;10.57;;;5.12;;
71298;SDS011;59083;47.974;21.722;2022-10-16T13:18:21;11.03;;;5.37;;
71298;SDS011;59083;47.974;21.722;2022-10-16T13:28:33;12.82;;;5.05;;
71298;SDS011;59083;47.974;21.722;2022-10-16T13:31:37;11.05;;;5.05;;
71298;SDS011;59083;47.974;21.722;2022-10-16T13:34:43;10.30;;;5.25;;
71298;SDS011;59083;47.974;21.722;2022-10-16T13:37:46;9.93;;;5.20;;
71298;SDS011;59083;47.974;21.722;2022-10-16T13:40:52;16.12;;;5.50;;
71298;SDS011;59083;47.974;21.722;2022-10-16T13:43:55;8.40;;;4.75;;
71298;SDS011;59083;47.974;21.722;2022-10-16T13:46:58;10.25;;;5.30;;
71298;SDS011;59083;47.974;21.722;2022-10-16T13:50:05;8.77;;;5.23;;
71298;SDS011;59083;47.974;21.722;2022-10-16T13:53:12;10.37;;;5.13;;
71298;SDS011;59083;47.974;21.722;2022-10-16T13:56:19;10.93;;;4.80;;
71298;SDS011;59083;47.974;21.722;2022-10-16T13:59:33;10.38;;;5.15;;
71298;SDS011;59083;47.974;21.722;2022-10-16T14:02:36;10.13;;;5.18;;
71298;SDS011;59083;47.974;21.722;2022-10-16T14:05:43;12.03;;;6.10;;
71298;SDS011;59083;47.974;21.722;2022-10-16T14:08:50;12.10;;;5.47;;
71298;SDS011;59083;47.974;21.722;2022-10-16T14:12:00;13.50;;;5.30;;
71298;SDS011;59083;47.974;21.722;2022-10-16T14:15:04;13.95;;;5.70;;
71298;SDS011;59083;47.974;21.722;2022-10-16T14:18:06;12.45;;;5.82;;
71298;SDS011;59083;47.974;21.722;2022-10-16T14:21:14;11.87;;;5.33;;
71298;SDS011;59083;47.974;21.722;2022-10-16T14:27:34;9.95;;;5.45;;
71298;SDS011;59083;47.974;21.722;2022-10-16T14:30:48;11.20;;;5.40;;
71298;SDS011;59083;47.974;21.722;2022-10-16T14:33:56;10.02;;;5.12;;
71298;SDS011;59083;47.974;21.722;2022-10-16T14:36:59;13.07;;;5.67;;
71298;SDS011;59083;47.974;21.722;2022-10-16T14:40:05;11.70;;;5.63;;
71298;SDS011;59083;47.974;21.722;2022-10-16T14:43:20;12.65;;;6.05;;
71298;SDS011;59083;47.974;21.722;2022-10-16T14:46:37;13.90;;;5.60;;
71298;SDS011;59083;47.974;21.722;2022-10-16T14:49:41;9.23;;;5.82;;
71298;SDS011;59083;47.974;21.722;2022-10-16T14:52:43;12.50;;;5.60;;
71298;SDS011;59083;47.974;21.722;2022-10-16T14:55:44;9.50;;;5.50;;
71298;SDS011;59083;47.974;21.722;2022-10-16T14:58:46;11.43;;;5.90;;
71298;SDS011;59083;47.974;21.722;2022-10-16T15:01:48;8.93;;;5.50;;
71298;SDS011;59083;47.974;21.722;2022-10-16T15:04:49;10.40;;;6.00;;
71298;SDS011;59083;47.974;21.722;2022-10-16T15:07:51;12.33;;;5.93;;
71298;SDS011;59083;47.974;21.722;2022-10-16T15:10:53;12.73;;;6.93;;
71298;SDS011;59083;47.974;21.722;2022-10-16T15:13:55;12.90;;;6.45;;
71298;SDS011;59083;47.974;21.722;2022-10-16T15:16:56;11.00;;;5.72;;
71298;SDS011;59083;47.974;21.722;2022-10-16T15:19:57;12.25;;;6.07;;
71298;SDS011;59083;47.974;21.722;2022-10-16T15:23:00;11.37;;;6.23;;
71298;SDS011;59083;47.974;21.722;2022-10-16T15:26:03;10.20;;;5.50;;
71298;SDS011;59083;47.974;21.722;2022-10-16T15:29:04;10.88;;;6.10;;
71298;SDS011;59083;47.974;21.722;2022-10-16T15:32:05;13.38;;;6.32;;
71298;SDS011;59083;47.974;21.722;2022-10-16T15:35:09;13.23;;;6.60;;
71298;SDS011;59083;47.974;21.722;2022-10-16T15:38:11;12.63;;;6.68;;
71298;SDS011;59083;47.974;21.722;2022-10-16T15:41:14;15.17;;;6.67;;
71298;SDS011;59083;47.974;21.722;2022-10-16T15:44:15;15.05;;;7.05;;
71298;SDS011;59083;47.974;21.722;2022-10-16T15:47:16;13.27;;;6.87;;
71298;SDS011;59083;47.974;21.722;2022-10-16T15:50:17;14.95;;;7.80;;
71298;SDS011;59083;47.974;21.722;2022-10-16T15:53:19;16.50;;;8.35;;
71298;SDS011;59083;47.974;21.722;2022-10-16T15:56:20;17.20;;;9.57;;
71298;SDS011;59083;47.974;21.722;2022-10-16T15:59:22;20.62;;;9.60;;
71298;SDS011;59083;47.974;21.722;2022-10-16T16:02:24;17.35;;;8.05;;
71298;SDS011;59083;47.974;21.722;2022-10-16T16:05:25;15.98;;;8.05;;
71298;SDS011;59083;47.974;21.722;2022-10-16T16:08:28;15.20;;;7.82;;
71298;SDS011;59083;47.974;21.722;2022-10-16T16:11:29;18.07;;;8.07;;
71298;SDS011;59083;47.974;21.722;2022-10-16T16:14:32;18.60;;;7.82;;
71298;SDS011;59083;47.974;21.722;2022-10-16T16:17:34;20.00;;;8.82;;
71298;SDS011;59083;47.974;21.722;2022-10-16T16:20:37;17.10;;;8.70;;
71298;SDS011;59083;47.974;21.722;2022-10-16T16:23:38;16.30;;;8.87;;
71298;SDS011;59083;47.974;21.722;2022-10-16T16:26:39;16.13;;;8.57;;
71298;SDS011;59083;47.974;21.722;2022-10-16T16:29:44;14.52;;;8.73;;
71298;SDS011;59083;47.974;21.722;2022-10-16T16:32:45;19.27;;;9.52;;
71298;SDS011;59083;47.974;21.722;2022-10-16T16:35:47;19.30;;;9.55;;
71298;SDS011;59083;47.974;21.722;2022-10-16T16:38:48;18.97;;;10.70;;
71298;SDS011;59083;47.974;21.722;2022-10-16T16:41:49;17.57;;;10.20;;
71298;SDS011;59083;47.974;21.722;2022-10-16T16:44:50;21.35;;;11.20;;
71298;SDS011;59083;47.974;21.722;2022-10-16T16:47:52;20.62;;;10.80;;
71298;SDS011;59083;47.974;21.722;2022-10-16T16:50:53;24.70;;;11.30;;
71298;SDS011;59083;47.974;21.722;2022-10-16T16:53:54;19.17;;;10.80;;
71298;SDS011;59083;47.974;21.722;2022-10-16T16:56:56;22.30;;;11.17;;
71298;SDS011;59083;47.974;21.722;2022-10-16T16:59:57;20.55;;;10.38;;
71298;SDS011;59083;47.974;21.722;2022-10-16T17:02:58;21.02;;;11.05;;
71298;SDS011;59083;47.974;21.722;2022-10-16T17:06:01;24.27;;;9.60;;
71298;SDS011;59083;47.974;21.722;2022-10-16T17:09:06;19.90;;;9.57;;
71298;SDS011;59083;47.974;21.722;2022-10-16T17:12:08;21.53;;;10.47;;
71298;SDS011;59083;47.974;21.722;2022-10-16T17:15:09;24.23;;;10.77;;
71298;SDS011;59083;47.974;21.722;2022-10-16T17:18:11;20.45;;;11.15;;
71298;SDS011;59083;47.974;21.722;2022-10-16T17:21:12;18.52;;;10.60;;
71298;SDS011;59083;47.974;21.722;2022-10-16T17:24:13;19.42;;;10.85;;
71298;SDS011;59083;47.974;21.722;2022-10-16T17:27:15;22.37;;;11.50;;
71298;SDS011;59083;47.974;21.722;2022-10-16T17:30:16;24.20;;;11.68;;
71298;SDS011;59083;47.974;21.722;2022-10-16T17:33:17;21.33;;;11.18;;
71298;SDS011;59083;47.974;21.722;2022-10-16T17:36:20;26.30;;;11.10;;
71298;SDS011;59083;47.974;21.722;2022-10-16T17:39:22;19.97;;;11.30;;
71298;SDS011;59083;47.974;21.722;2022-10-16T17:42:23;24.07;;;11.33;;
71298;SDS011;59083;47.974;21.722;2022-10-16T17:45:24;19.73;;;11.20;;
71298;SDS011;59083;47.974;21.722;2022-10-16T17:48:26;26.17;;;11.57;;
71298;SDS011;59083;47.974;21.722;2022-10-16T17:51:29;22.42;;;10.77;;
71298;SDS011;59083;47.974;21.722;2022-10-16T17:54:32;20.37;;;11.00;;
71298;SDS011;59083;47.974;21.722;2022-10-16T17:57:33;22.43;;;11.40;;
71298;SDS011;59083;47.974;21.722;2022-10-16T18:00:34;24.95;;;12.02;;
71298;SDS011;59083;47.974;21.722;2022-10-16T18:03:36;22.67;;;11.65;;
71298;SDS011;59083;47.974;21.722;2022-10-16T18:06:37;19.37;;;11.80;;
71298;SDS011;59083;47.974;21.722;2022-10-16T18:09:40;27.30;;;11.67;;
71298;SDS011;59083;47.974;21.722;2022-10-16T18:12:41;23.67;;;12.63;;
71298;SDS011;59083;47.974;21.722;2022-10-16T18:15:43;22.30;;;13.10;;
71298;SDS011;59083;47.974;21.722;2022-10-16T18:18:44;26.45;;;13.10;;
71298;SDS011;59083;47.974;21.722;2022-10-16T18:21:45;25.77;;;13.45;;
71298;SDS011;59083;47.974;21.722;2022-10-16T18:24:48;28.00;;;14.47;;
71298;SDS011;59083;47.974;21.722;2022-10-16T18:27:50;26.43;;;14.07;;
71298;SDS011;59083;47.974;21.722;2022-10-16T18:30:55;27.35;;;13.85;;
71298;SDS011;59083;47.974;21.722;2022-10-16T18:34:04;28.45;;;14.43;;
71298;SDS011;59083;47.974;21.722;2022-10-16T18:37:06;29.70;;;14.00;;
71298;SDS011;59083;47.974;21.722;2022-10-16T18:40:07;30.00;;;14.33;;
71298;SDS011;59083;47.974;21.722;2022-10-16T18:43:08;27.77;;;14.63;;
71298;SDS011;59083;47.974;21.722;2022-10-16T18:46:11;28.17;;;15.35;;
71298;SDS011;59083;47.974;21.722;2022-10-16T18:49:15;27.20;;;14.10;;
71298;SDS011;59083;47.974;21.722;2022-10-16T18:52:16;30.67;;;14.87;;
71298;SDS011;59083;47.974;21.722;2022-10-16T18:55:17;30.93;;;17.00;;
71298;SDS011;59083;47.974;21.722;2022-10-16T18:58:19;33.67;;;17.00;;
71298;SDS011;59083;47.974;21.722;2022-10-16T19:01:21;31.35;;;15.98;;
71298;SDS011;59083;47.974;21.722;2022-10-16T19:04:24;29.90;;;16.60;;
71298;SDS011;59083;47.974;21.722;2022-10-16T19:07:25;27.85;;;16.42;;
71298;SDS011;59083;47.974;21.722;2022-10-16T19:10:27;36.80;;;17.53;;
71298;SDS011;59083;47.974;21.722;2022-10-16T19:13:28;40.50;;;18.33;;
71298;SDS011;59083;47.974;21.722;2022-10-16T19:16:31;29.50;;;16.95;;
71298;SDS011;59083;47.974;21.722;2022-10-16T19:19:34;35.03;;;16.50;;
71298;SDS011;59083;47.974;21.722;2022-10-16T19:22:35;32.20;;;17.33;;
71298;SDS011;59083;47.974;21.722;2022-10-16T19:26:02;34.63;;;17.70;;
71298;SDS011;59083;47.974;21.722;2022-10-16T19:29:05;37.43;;;17.83;;
71298;SDS011;59083;47.974;21.722;2022-10-16T19:32:06;34.25;;;17.10;;
71298;SDS011;59083;47.974;21.722;2022-10-16T19:35:08;30.58;;;17.15;;
71298;SDS011;59083;47.974;21.722;2022-10-16T19:38:09;31.98;;;17.10;;
71298;SDS011;59083;47.974;21.722;2022-10-16T19:41:12;36.83;;;18.17;;
71298;SDS011;59083;47.974;21.722;2022-10-16T19:44:15;37.20;;;18.97;;
71298;SDS011;59083;47.974;21.722;2022-10-16T19:47:17;35.78;;;18.33;;